Time;durP1;ratioP1;P1;durP2;ratioP2;P2;SDS_P1;SDS_P2;PMS_P1;PMS_P2;Temp;Humidity;BMP_temperature;BMP_pressure;BME280_temperature;BME280_humidity;BME280_pressure;Samples;Min_cycle;Max_cycle;Signal;HPM_P1;HPM_P2
2021/06/01 00:00:34;;;;;;;6.93;6.40;;;;;;;18.03;50.64;102086.00;6207913;28;20579;-55
2021/06/01 00:03:55;;;;;;;7.57;6.70;;;;;;;17.92;51.27;102085.38;6195887;28;20835;-53
2021/06/01 00:07:15;;;;;;;7.85;6.05;;;;;;;18.04;50.92;102085.97;6209495;28;20217;-55
2021/06/01 00:10:35;;;;;;;8.00;7.20;;;;;;;18.09;50.86;102097.31;6210108;28;20236;-54
2021/06/01 00:13:56;;;;;;;7.95;7.25;;;;;;;18.05;51.27;102090.38;6203389;28;20229;-54
2021/06/01 00:17:18;;;;;;;7.18;6.53;;;;;;;17.92;51.39;102088.88;6202058;28;20351;-54
2021/06/01 00:20:39;;;;;;;7.53;6.82;;;;;;;17.73;51.82;102085.69;6205442;28;20225;-55
2021/06/01 00:23:59;;;;;;;8.23;7.15;;;;;;;17.64;51.91;102078.81;6210364;28;20622;-54
2021/06/01 00:27:20;;;;;;;7.72;6.95;;;;;;;17.24;52.89;102079.53;6206719;28;20244;-56
2021/06/01 00:30:41;;;;;;;8.18;7.47;;;;;;;17.72;51.99;102086.59;6210500;28;20783;-48
2021/06/01 00:34:04;;;;;;;7.00;6.35;;;;;;;17.63;52.33;102089.38;6209335;28;20237;-51
2021/06/01 00:37:24;;;;;;;7.85;7.05;;;;;;;17.52;52.71;102082.56;6208223;28;20221;-53
2021/06/01 00:40:45;;;;;;;8.57;7.78;;;;;;;17.50;52.75;102075.56;6208010;28;20236;-50
2021/06/01 00:44:06;;;;;;;9.15;8.27;;;;;;;17.47;52.72;102075.63;6208381;28;20244;-53
2021/06/01 00:47:26;;;;;;;7.60;6.90;;;;;;;17.45;53.12;102075.66;6202431;28;20521;-54
2021/06/01 00:50:49;;;;;;;7.35;6.47;;;;;;;17.29;53.61;102072.44;6212792;28;20225;-52
2021/06/01 00:54:09;;;;;;;8.10;7.30;;;;;;;17.20;53.68;102082.25;6193537;28;20229;-54
2021/06/01 00:57:29;;;;;;;9.40;7.30;;;;;;;17.38;53.22;102070.53;6205013;28;20323;-52
2021/06/01 01:01:08;;;;;;;8.33;7.40;;;;;;;17.23;53.88;102069.88;6210069;28;20814;-53
2021/06/01 01:04:29;;;;;;;8.35;7.65;;;;;;;16.97;54.62;102064.19;6206289;28;20236;-49
2021/06/01 01:08:05;;;;;;;9.07;8.27;;;;;;;17.20;53.83;102069.09;6208490;28;20320;-50
2021/06/01 01:11:32;;;;;;;8.73;7.87;;;;;;;17.23;53.74;102079.53;6207600;28;20495;-53
2021/06/01 01:14:58;;;;;;;8.47;7.63;;;;;;;17.46;53.02;102074.75;6203927;28;20229;-52
2021/06/01 01:18:22;;;;;;;8.80;8.00;;;;;;;17.04;54.38;102081.59;6208926;28;20230;-55
2021/06/01 01:21:46;;;;;;;7.57;6.95;;;;;;;16.97;54.61;102075.56;6204159;28;20233;-55
2021/06/01 01:25:16;;;;;;;8.77;7.55;;;;;;;17.13;54.07;102078.81;6206354;28;20233;-50
2021/06/01 01:28:44;;;;;;;7.40;6.70;;;;;;;16.95;54.81;102080.00;6205532;28;20220;-50
2021/06/01 01:32:08;;;;;;;7.78;6.97;;;;;;;17.13;54.71;102079.69;6207425;28;20248;-55
2021/06/01 01:35:32;;;;;;;8.27;7.50;;;;;;;17.13;54.43;102081.47;6209780;28;20221;-54
2021/06/01 01:38:53;;;;;;;8.50;7.80;;;;;;;16.76;55.50;102070.63;6207009;28;20229;-55
2021/06/01 01:42:15;;;;;;;8.82;7.93;;;;;;;16.64;55.85;102080.41;6205410;28;20240;-56
2021/06/01 01:45:37;;;;;;;8.98;8.00;;;;;;;16.58;55.91;102082.28;6202562;28;20233;-54
2021/06/01 01:48:59;;;;;;;7.57;6.97;;;;;;;16.67;55.96;102074.22;6206231;28;20677;-55
2021/06/01 01:52:21;;;;;;;8.85;8.05;;;;;;;16.76;56.09;102075.88;6207008;28;21961;-48
2021/06/01 01:55:45;;;;;;;8.93;8.23;;;;;;;16.83;55.76;102073.16;6208487;28;20252;-56
2021/06/01 01:59:07;;;;;;;8.33;7.57;;;;;;;16.62;56.34;102074.31;6199031;28;20233;-54
2021/06/01 02:02:28;;;;;;;8.70;7.70;;;;;;;16.43;56.82;102067.56;6193796;28;20564;-52
2021/06/01 02:05:50;;;;;;;9.23;8.43;;;;;;;16.48;56.70;102071.03;6203698;28;20261;-53
2021/06/01 02:09:13;;;;;;;8.70;7.90;;;;;;;16.36;56.67;102065.91;6204949;28;20331;-53
2021/06/01 02:12:34;;;;;;;9.53;8.53;;;;;;;16.32;57.23;102060.72;6195537;28;20968;-54
2021/06/01 02:15:56;;;;;;;9.20;8.30;;;;;;;16.53;56.41;102069.19;6199531;28;20419;-50
2021/06/01 02:19:18;;;;;;;9.17;8.27;;;;;;;16.63;56.16;102062.88;6204321;28;20233;-53
2021/06/01 02:26:49;;;;;;;8.97;8.10;;;;;;;16.66;56.52;102076.00;6095823;28;20243;-54
2021/06/01 02:30:12;;;;;;;7.87;7.10;;;;;;;16.53;56.58;102063.91;6116415;28;20753;-54
2021/06/01 02:33:36;;;;;;;9.43;8.53;;;;;;;16.50;56.51;102066.59;6201111;28;20243;-53
2021/06/01 02:36:57;;;;;;;8.23;7.53;;;;;;;16.24;57.58;102067.78;6204462;28;20241;-55
2021/06/01 02:40:21;;;;;;;8.37;7.57;;;;;;;16.24;57.40;102062.53;6198170;28;20250;-50
2021/06/01 02:43:43;;;;;;;9.70;7.53;;;;;;;15.95;58.23;102065.53;6200911;28;20583;-56
2021/06/01 02:47:05;;;;;;;8.57;7.80;;;;;;;16.19;57.54;102066.13;6203731;28;20236;-53
2021/06/01 02:50:29;;;;;;;7.80;7.00;;;;;;;16.29;57.11;102060.72;6201190;28;20241;-53
2021/06/01 02:53:52;;;;;;;8.63;7.83;;;;;;;16.56;56.61;102066.50;6207864;28;20261;-53
2021/06/01 02:57:12;;;;;;;7.97;7.23;;;;;;;16.32;57.44;102062.44;6204829;28;20233;-55
2021/06/01 03:00:35;;;;;;;10.03;9.00;;;;;;;16.11;58.20;102061.84;6201192;28;20249;-50
2021/06/01 03:03:56;;;;;;;33.33;30.23;;;;;;;15.93;58.91;102059.44;6198806;28;20237;-54
2021/06/01 03:07:17;;;;;;;17.60;16.00;;;;;;;15.86;59.26;102052.53;6202865;28;20312;-56
2021/06/01 03:10:38;;;;;;;10.97;9.50;;;;;;;16.01;58.30;102048.81;6206978;28;20224;-54
2021/06/01 03:13:58;;;;;;;11.13;9.87;;;;;;;16.24;57.81;102046.78;6212849;28;20240;-52
2021/06/01 03:17:20;;;;;;;9.53;8.63;;;;;;;16.03;58.26;102054.94;6209023;28;20237;-53
2021/06/01 03:20:41;;;;;;;9.27;8.10;;;;;;;15.92;58.73;102049.81;6204223;28;20233;-51
2021/06/01 03:24:01;;;;;;;10.40;8.40;;;;;;;15.79;58.83;102056.97;6204324;28;20233;-54
2021/06/01 03:27:22;;;;;;;8.90;8.00;;;;;;;15.98;58.26;102048.88;6182571;28;20221;-55
2021/06/01 03:30:43;;;;;;;8.60;7.83;;;;;;;16.03;58.25;102047.03;6213277;28;20228;-54
2021/06/01 03:34:05;;;;;;;9.00;8.20;;;;;;;16.10;57.99;102039.06;6205707;28;20252;-55
2021/06/01 03:37:26;;;;;;;9.50;8.50;;;;;;;16.34;57.08;102040.53;6214374;28;20451;-53
2021/06/01 03:40:46;;;;;;;12.70;10.13;;;;;;;16.32;57.20;102037.06;6212858;28;20225;-54
2021/06/01 03:44:07;;;;;;;8.83;8.03;;;;;;;16.23;57.61;102034.53;6212912;28;20327;-52
2021/06/01 03:47:27;;;;;;;9.17;8.37;;;;;;;16.26;57.71;102033.63;6212982;28;20239;-52
2021/06/01 03:50:49;;;;;;;10.80;7.93;;;;;;;16.37;57.27;102025.59;6205856;28;20316;-51
2021/06/01 03:54:09;;;;;;;9.63;8.73;;;;;;;16.45;57.42;102023.72;6211247;28;20265;-52
2021/06/01 03:57:30;;;;;;;12.13;7.97;;;;;;;16.50;57.00;102028.03;6205285;28;20445;-53
2021/06/01 04:00:51;;;;;;;9.90;9.07;;;;;;;16.28;57.89;102031.84;6207389;28;20237;-54
2021/06/01 04:04:11;;;;;;;9.70;8.90;;;;;;;16.38;57.74;102024.69;6207125;28;20281;-53
2021/06/01 04:07:33;;;;;;;8.67;7.90;;;;;;;16.62;57.39;102021.72;6205486;28;20229;-54
2021/06/01 04:10:53;;;;;;;10.17;9.23;;;;;;;16.72;56.99;102017.19;6202540;28;20233;-52
2021/06/01 04:14:16;;;;;;;8.67;7.83;;;;;;;16.83;56.48;102017.06;6204530;28;20245;-50
2021/06/01 04:17:36;;;;;;;10.75;9.75;;;;;;;16.64;57.19;102019.06;6208705;28;20233;-53
2021/06/01 04:20:59;;;;;;;11.23;9.53;;;;;;;16.80;56.91;102031.06;6204777;28;20244;-50
2021/06/01 04:24:21;;;;;;;9.97;9.07;;;;;;;17.06;56.17;102032.44;6189317;28;20672;-51
2021/06/01 04:27:42;;;;;;;10.70;9.13;;;;;;;17.03;57.04;102030.75;6205064;28;20229;-53
2021/06/01 04:31:03;;;;;;;9.87;9.00;;;;;;;17.22;56.51;102033.94;6182044;28;20233;-50
2021/06/01 04:34:23;;;;;;;12.63;8.77;;;;;;;17.37;56.24;102024.00;6213383;28;20355;-51
2021/06/01 04:37:44;;;;;;;9.07;8.17;;;;;;;17.21;56.13;102026.91;6200562;28;20237;-52
2021/06/01 04:41:05;;;;;;;12.43;9.47;;;;;;;17.20;56.19;102019.06;6207783;28;20597;-49
2021/06/01 04:44:26;;;;;;;11.03;9.53;;;;;;;17.31;56.27;102014.44;6208016;28;20237;-55
2021/06/01 04:47:46;;;;;;;10.07;9.17;;;;;;;17.40;56.04;102018.69;6216480;28;20232;-52
2021/06/01 04:51:16;;;;;;;11.50;10.30;;;;;;;17.66;55.28;102021.72;6213248;28;20315;-53
2021/06/01 04:54:36;;;;;;;12.43;9.23;;;;;;;17.70;55.73;102014.63;6207224;28;20323;-54
2021/06/01 04:57:57;;;;;;;13.47;10.17;;;;;;;17.85;55.64;102024.84;6206563;28;20237;-54
2021/06/01 05:01:18;;;;;;;12.43;9.83;;;;;;;17.82;56.21;102031.94;6207235;28;20236;-51
2021/06/01 05:04:38;;;;;;;13.90;10.10;;;;;;;18.05;55.37;102036.78;6201834;28;20225;-53
2021/06/01 05:07:59;;;;;;;10.30;9.30;;;;;;;18.21;55.21;102037.31;6203491;28;20237;-52
2021/06/01 05:11:20;;;;;;;10.60;9.60;;;;;;;18.47;53.88;102031.44;6203435;28;20229;-49
2021/06/01 05:14:42;;;;;;;11.00;9.35;;;;;;;18.49;53.24;102037.56;6201638;28;20233;-54
2021/06/01 05:18:03;;;;;;;16.00;10.87;;;;;;;18.46;53.00;102040.28;6210186;28;20614;-51
2021/06/01 05:21:23;;;;;;;10.70;9.38;;;;;;;18.41;53.14;102026.31;6197176;28;20331;-54
2021/06/01 05:24:45;;;;;;;10.95;9.85;;;;;;;18.48;53.30;102031.44;6203787;28;20232;-54
2021/06/01 05:28:05;;;;;;;12.75;11.45;;;;;;;18.62;52.93;102032.88;6207662;28;20398;-52
2021/06/01 05:31:32;;;;;;;11.23;9.68;;;;;;;18.64;53.24;102026.66;6199383;28;20233;-54
2021/06/01 05:34:59;;;;;;;11.80;9.82;;;;;;;18.88;52.11;102025.25;6203625;28;20304;-54
2021/06/01 05:38:20;;;;;;;10.60;9.60;;;;;;;18.78;51.75;102022.81;6202565;28;20233;-56
2021/06/01 05:41:41;;;;;;;11.23;10.07;;;;;;;19.06;51.68;102018.63;6200179;28;20233;-52
2021/06/01 05:45:01;;;;;;;13.18;9.85;;;;;;;19.11;51.48;102009.72;6200827;28;20373;-54
2021/06/01 05:48:24;;;;;;;10.13;9.13;;;;;;;19.17;50.71;102014.84;6187174;28;20256;-53
2021/06/01 05:51:44;;;;;;;10.93;8.90;;;;;;;19.26;50.13;102020.75;6199543;28;20225;-53
2021/06/01 05:55:07;;;;;;;10.52;9.23;;;;;;;19.19;51.01;102013.91;6200626;28;20347;-55
2021/06/01 05:58:27;;;;;;;11.35;9.75;;;;;;;19.36;50.15;102016.09;6178975;28;20253;-56
2021/06/01 06:01:48;;;;;;;9.60;8.60;;;;;;;19.37;49.20;102009.91;6196037;28;20233;-56
2021/06/01 06:05:11;;;;;;;8.95;8.00;;;;;;;19.56;47.80;102018.19;6202949;28;20237;-56
2021/06/01 06:08:32;;;;;;;8.57;7.47;;;;;;;19.93;45.79;102016.31;6197870;28;20533;-56
2021/06/01 06:11:52;;;;;;;7.78;6.47;;;;;;;19.93;45.15;102026.88;6202900;28;20256;-54
2021/06/01 06:15:17;;;;;;;6.75;6.13;;;;;;;19.76;44.94;102025.59;6203299;28;20237;-54
2021/06/01 06:18:42;;;;;;;9.15;6.40;;;;;;;20.05;44.96;102029.19;6200980;28;20564;-56
2021/06/01 06:22:04;;;;;;;7.13;6.43;;;;;;;20.42;44.51;102025.41;6207321;28;20232;-54
2021/06/01 06:25:25;;;;;;;7.68;6.60;;;;;;;20.46;43.35;102019.97;6203348;28;20229;-56
2021/06/01 06:28:45;;;;;;;7.18;5.65;;;;;;;20.81;41.64;102025.09;6188587;28;20233;-55
2021/06/01 06:32:07;;;;;;;7.13;5.18;;;;;;;20.92;38.73;102025.59;6209309;28;20239;-57
2021/06/01 06:35:27;;;;;;;4.97;4.57;;;;;;;20.94;38.45;102023.75;6180625;28;20522;-58
2021/06/01 06:38:48;;;;;;;5.07;4.05;;;;;;;21.01;37.95;102022.66;6192612;28;20328;-50
2021/06/01 06:42:09;;;;;;;4.65;4.25;;;;;;;21.13;37.11;102018.72;6194032;28;20514;-56
2021/06/01 06:45:31;;;;;;;4.65;4.20;;;;;;;21.34;36.82;102019.72;6201241;28;20615;-53
2021/06/01 06:48:52;;;;;;;4.78;3.55;;;;;;;21.44;36.26;102020.28;6205488;28;20225;-56
2021/06/01 06:52:13;;;;;;;4.63;3.90;;;;;;;21.48;36.00;102019.28;6205215;28;20228;-57
2021/06/01 06:55:36;;;;;;;4.57;3.30;;;;;;;21.70;34.99;102015.88;6206494;28;20241;-56
2021/06/01 06:58:58;;;;;;;4.20;3.55;;;;;;;21.61;34.09;102011.75;6200815;28;20656;-55
2021/06/01 07:02:20;;;;;;;8.00;3.90;;;;;;;22.05;34.11;102014.53;6204750;28;20228;-50
2021/06/01 07:05:40;;;;;;;6.03;4.38;;;;;;;22.38;34.17;102011.53;6201635;28;20236;-55
2021/06/01 07:09:01;;;;;;;5.82;3.30;;;;;;;22.39;33.70;102023.84;6191386;28;20630;-55
2021/06/01 07:12:22;;;;;;;5.75;3.38;;;;;;;22.65;34.44;102016.66;6194972;28;20252;-54
2021/06/01 07:15:51;;;;;;;4.32;3.33;;;;;;;22.76;33.31;102019.69;6200026;28;20252;-55
2021/06/01 07:19:12;;;;;;;5.38;3.13;;;;;;;22.76;31.09;102014.38;6215462;28;20248;-57
2021/06/01 07:22:33;;;;;;;4.03;3.50;;;;;;;22.88;30.07;102005.94;6208933;28;20547;-53
2021/06/01 07:25:54;;;;;;;5.00;3.08;;;;;;;22.81;30.38;102015.06;6201643;28;20232;-55
2021/06/01 07:29:16;;;;;;;7.00;2.63;;;;;;;22.70;27.90;102012.88;6205000;28;20586;-55
2021/06/01 07:32:36;;;;;;;3.92;3.15;;;;;;;22.74;29.71;102013.59;6196736;28;20253;-54
2021/06/01 07:35:57;;;;;;;3.17;2.90;;;;;;;22.85;28.02;102016.66;6195476;28;20229;-57
2021/06/01 07:39:17;;;;;;;4.45;3.28;;;;;;;22.81;29.21;102004.44;6203088;28;20233;-54
2021/06/01 07:42:38;;;;;;;2.78;2.50;;;;;;;22.98;28.48;102007.25;6185656;28;20229;-56
2021/06/01 07:46:02;;;;;;;4.18;2.78;;;;;;;22.90;29.64;102005.88;6208748;28;20237;-56
2021/06/01 07:49:22;;;;;;;3.05;2.78;;;;;;;23.00;28.83;101997.44;6200877;28;20240;-54
2021/06/01 07:52:43;;;;;;;3.35;3.15;;;;;;;22.94;28.38;102003.00;6203588;28;20266;-56
2021/06/01 07:56:06;;;;;;;3.60;2.63;;;;;;;22.88;28.67;102000.63;6195636;28;20225;-55
2021/06/01 07:59:26;;;;;;;2.75;2.50;;;;;;;23.18;29.00;101998.47;6205038;28;20229;-51
2021/06/01 08:02:48;;;;;;;2.70;2.50;;;;;;;23.45;30.18;101994.66;6206791;28;20265;-54
2021/06/01 08:06:09;;;;;;;4.78;2.88;;;;;;;23.53;28.25;101996.03;6206799;28;21066;-55
2021/06/01 08:09:29;;;;;;;3.17;2.45;;;;;;;23.75;28.89;101993.28;6202028;28;20316;-54
2021/06/01 08:12:52;;;;;;;3.35;3.05;;;;;;;23.86;28.48;101989.28;6200521;28;20232;-57
2021/06/01 08:16:12;;;;;;;3.22;2.67;;;;;;;24.10;33.27;101987.28;6198792;28;20236;-54
2021/06/01 08:19:39;;;;;;;2.78;2.55;;;;;;;24.51;32.25;101987.97;6202007;28;20244;-54
2021/06/01 08:22:59;;;;;;;3.83;3.53;;;;;;;24.74;28.38;101991.28;6192689;28;20232;-54
2021/06/01 08:26:19;;;;;;;3.85;3.20;;;;;;;24.79;32.98;101983.91;6201199;28;20312;-52
2021/06/01 08:29:40;;;;;;;3.42;3.13;;;;;;;24.72;31.72;101986.03;6204222;28;20717;-51
2021/06/01 08:33:01;;;;;;;4.63;3.13;;;;;;;24.58;31.88;101987.66;6198706;28;20676;-52
2021/06/01 08:36:24;;;;;;;2.90;2.65;;;;;;;24.54;30.65;101976.28;6172697;28;20233;-55
2021/06/01 08:39:45;;;;;;;2.95;2.60;;;;;;;24.49;29.99;101968.50;6205269;28;20504;-63
2021/06/01 08:43:16;;;;;;;4.55;3.75;;;;;;;24.07;28.82;101961.66;6202018;28;20221;-63
2021/06/01 08:46:37;;;;;;;3.58;3.15;;;;;;;24.12;29.78;101964.97;6197716;28;20233;-63
2021/06/01 08:49:59;;;;;;;4.53;3.55;;;;;;;24.32;28.41;101963.16;6205959;28;20571;-62
2021/06/01 08:53:21;;;;;;;5.28;3.13;;;;;;;24.78;29.04;101971.53;6205842;28;20241;-61
2021/06/01 08:56:43;;;;;;;3.95;2.78;;;;;;;25.34;28.79;101970.44;6203031;28;20224;-56
2021/06/01 09:00:05;;;;;;;3.42;3.20;;;;;;;24.88;28.92;101962.13;6204567;28;20228;-50
2021/06/01 09:03:27;;;;;;;2.90;2.70;;;;;;;24.69;27.54;101961.34;6194361;28;20654;-53
2021/06/01 09:06:53;;;;;;;3.10;2.80;;;;;;;25.02;28.06;101957.91;6186727;28;20237;-56
2021/06/01 09:10:29;;;;;;;3.17;2.95;;;;;;;25.04;25.63;101958.69;6206546;28;20233;-52
2021/06/01 09:14:14;;;;;;;2.97;2.67;;;;;;;24.78;26.88;101947.56;6208901;28;20304;-53
2021/06/01 09:21:14;;;;;;;3.90;3.60;;;;;;;24.79;28.08;101951.94;6197178;28;20217;-49
2021/06/01 09:24:35;;;;;;;4.97;3.70;;;;;;;25.01;28.33;101948.16;6208613;28;20229;-52
2021/06/01 09:27:58;;;;;;;5.10;3.10;;;;;;;25.18;27.21;101953.47;6201491;28;20249;-56
2021/06/01 09:31:19;;;;;;;4.50;3.33;;;;;;;24.86;28.48;101944.53;6200381;28;20225;-51
2021/06/01 09:34:42;;;;;;;4.20;3.08;;;;;;;24.79;28.51;101938.63;6205476;28;20237;-52
2021/06/01 09:38:03;;;;;;;4.03;3.58;;;;;;;24.62;29.48;101943.94;6195193;28;20248;-53
2021/06/01 09:41:26;;;;;;;4.05;3.63;;;;;;;25.24;28.83;101939.88;6205408;28;20241;-51
2021/06/01 09:45:04;;;;;;;9.60;3.63;;;;;;;24.96;29.16;101935.09;6204658;28;20862;-54
2021/06/01 09:48:25;;;;;;;3.53;2.78;;;;;;;24.85;29.27;101932.97;6195359;28;20741;-50
2021/06/01 09:51:50;;;;;;;3.92;3.63;;;;;;;25.16;29.65;101934.03;6197377;28;20226;-53
2021/06/01 09:55:15;;;;;;;7.55;3.70;;;;;;;25.38;29.86;101922.25;6201357;28;20228;-51
2021/06/01 09:58:37;;;;;;;5.15;3.53;;;;;;;25.21;29.61;101924.00;6197482;28;20233;-51
2021/06/01 10:01:58;;;;;;;4.10;3.33;;;;;;;25.13;29.81;101923.56;6200101;28;20332;-53
2021/06/01 10:05:21;;;;;;;4.55;4.15;;;;;;;24.76;30.12;101925.47;6199433;28;20657;-50
2021/06/01 10:08:46;;;;;;;4.22;3.72;;;;;;;24.51;30.97;101924.06;6208459;28;20247;-52
2021/06/01 10:12:08;;;;;;;4.63;2.90;;;;;;;25.05;30.08;101917.78;6207319;28;20269;-56
2021/06/01 10:15:30;;;;;;;4.50;3.60;;;;;;;25.19;31.28;101919.72;6189971;28;20264;-52
2021/06/01 10:18:52;;;;;;;4.32;3.42;;;;;;;25.43;29.61;101917.53;6204745;28;20257;-54
2021/06/01 10:22:13;;;;;;;6.10;4.53;;;;;;;25.31;30.55;101909.25;6205859;28;20233;-54
2021/06/01 10:25:33;;;;;;;6.55;5.97;;;;;;;25.24;31.98;101907.91;6181028;28;20237;-52
2021/06/01 10:28:55;;;;;;;4.82;4.40;;;;;;;25.23;32.48;101900.81;6188705;28;20233;-53
2021/06/01 10:32:17;;;;;;;4.30;3.90;;;;;;;25.12;31.37;101905.84;6204726;28;20233;-54
2021/06/01 10:35:47;;;;;;;4.82;4.43;;;;;;;25.01;32.47;101895.75;6195640;28;20233;-52
2021/06/01 10:50:36;;;;;;;4.60;3.72;;;;;;;26.07;31.64;101884.63;6203470;28;20229;-51
2021/06/01 10:53:58;;;;;;;5.00;3.95;;;;;;;26.53;30.74;101879.25;6182718;28;20229;-51
2021/06/01 10:57:20;;;;;;;3.63;3.33;;;;;;;26.80;31.05;101883.91;6199734;28;20241;-50
2021/06/01 11:04:21;;;;;;;4.30;3.90;;;;;;;26.47;29.55;101882.28;6192375;28;20253;-53
2021/06/01 11:07:54;;;;;;;3.75;3.40;;;;;;;27.07;29.84;101872.50;6204088;28;20237;-52
2021/06/01 11:11:43;;;;;;;4.60;3.85;;;;;;;27.16;29.39;101871.03;6203355;28;20232;-50
2021/06/01 11:15:23;;;;;;;5.63;3.90;;;;;;;27.58;30.22;101872.84;6160981;28;20273;-53
2021/06/01 11:18:49;;;;;;;5.70;4.90;;;;;;;28.07;29.11;101869.66;6195162;28;20236;-55
2021/06/01 11:22:22;;;;;;;5.68;3.72;;;;;;;27.97;30.18;101865.84;6204875;28;20240;-50
2021/06/01 11:33:33;;;;;;;4.13;3.63;;;;;;;26.94;29.93;101864.34;6194516;28;20240;-53
2021/06/01 11:36:56;;;;;;;4.30;4.00;;;;;;;27.32;28.65;101857.59;6204221;28;20233;-52
2021/06/01 11:40:24;;;;;;;4.78;4.32;;;;;;;27.43;29.51;101852.41;6205339;28;22520;-52
2021/06/01 11:43:44;;;;;;;4.70;4.25;;;;;;;27.81;29.43;101847.25;6195408;28;20237;-59
2021/06/01 11:47:14;;;;;;;8.20;4.57;;;;;;;27.83;29.59;101839.13;6193788;28;20241;-60
2021/06/01 11:54:16;;;;;;;4.05;3.75;;;;;;;28.16;29.07;101835.19;6198586;28;20226;-60
2021/06/01 12:01:57;;;;;;;4.22;3.92;;;;;;;28.24;28.70;101832.84;6188601;28;20233;-60
2021/06/01 12:05:11;;;;;;;6.13;4.45;;;;;;;28.28;29.28;101834.34;6196868;28;20562;-61
2021/06/01 12:12:39;;;;;;;5.18;4.13;;;;;;;28.33;29.08;101816.16;6205891;28;20236;-60
2021/06/01 12:19:39;;;;;;;3.95;3.53;;;;;;;29.50;27.90;101815.13;6201504;28;20418;-60
2021/06/01 12:23:01;;;;;;;5.90;4.35;;;;;;;29.19;25.89;101810.16;6195358;28;20245;-59
2021/06/01 12:26:26;;;;;;;5.28;4.78;;;;;;;28.52;28.05;101810.44;6206377;28;20272;-59
2021/06/01 12:33:25;;;;;;;5.22;4.40;;;;;;;27.34;28.22;101784.34;6187656;28;20673;-58
2021/06/01 12:44:14;;;;;;;4.45;4.03;;;;;;;30.25;26.47;101781.78;6205675;28;20671;-59
2021/06/01 13:12:02;;;;;;;4.05;3.72;;;;;;;30.99;21.26;101766.94;6200847;28;20322;-57
2021/06/01 13:21:03;;;;;;;4.25;3.88;;;;;;;31.28;21.14;101754.78;6201152;28;20229;-56
2021/06/01 13:32:28;;;;;;;4.40;3.92;;;;;;;30.55;22.96;101738.22;6199901;28;20260;-60
2021/06/01 13:39:38;;;;;;;3.45;3.25;;;;;;;29.42;23.98;101740.56;6199544;28;20241;-60
2021/06/01 13:46:40;;;;;;;3.85;3.53;;;;;;;28.70;25.17;101743.97;6199486;28;20233;-61
2021/06/01 13:50:05;;;;;;;3.63;3.05;;;;;;;29.10;25.36;101733.03;6200368;28;20245;-59
2021/06/01 13:57:09;;;;;;;4.88;3.13;;;;;;;29.33;24.96;101725.13;6198467;28;20224;-59
2021/06/01 14:00:36;;;;;;;5.07;3.75;;;;;;;29.41;25.61;101723.63;6196570;28;20241;-58
2021/06/01 14:15:27;;;;;;;3.50;3.13;;;;;;;28.88;25.91;101719.47;6179396;28;20244;-53
2021/06/01 14:29:54;;;;;;;3.97;3.42;;;;;;;28.45;27.01;101708.16;6194032;28;20237;-55
2021/06/01 15:10:55;;;;;;;4.32;2.63;;;;;;;27.42;26.35;101692.91;6205963;28;20233;-50
2021/06/01 15:29:12;;;;;;;4.68;2.30;;;;;;;26.23;25.86;101688.84;6208115;28;20237;-52
2021/06/01 15:32:37;;;;;;;2.40;2.17;;;;;;;25.88;25.59;101689.16;6209232;28;20295;-53
2021/06/01 15:50:42;;;;;;;3.47;2.40;;;;;;;26.12;25.36;101693.03;6210062;28;20449;-53
2021/06/01 15:54:38;;;;;;;2.83;2.50;;;;;;;26.12;26.00;101687.69;6205185;28;20233;-54
2021/06/01 16:13:27;;;;;;;7.63;7.03;;;;;;;26.50;23.43;101675.59;6156796;28;20233;-51
2021/06/01 16:31:41;;;;;;;2.00;1.80;;;;;;;24.86;22.09;101684.31;6209165;28;20225;-53
2021/06/01 16:42:37;;;;;;;9.98;3.45;;;;;;;24.23;21.26;101676.16;6193554;28;20502;-57
2021/06/01 17:04:33;;;;;;;1.90;1.67;;;;;;;24.10;20.10;101673.31;6200949;28;20237;-56
2021/06/01 17:08:17;;;;;;;1.45;1.30;;;;;;;24.18;20.34;101673.78;6201307;28;20248;-55
2021/06/01 17:11:42;;;;;;;2.13;1.75;;;;;;;24.20;18.95;101668.38;6203681;28;20237;-54
2021/06/01 17:15:03;;;;;;;1.08;0.98;;;;;;;23.87;18.62;101671.84;6201511;28;20248;-54
2021/06/01 17:18:39;;;;;;;1.35;1.20;;;;;;;24.00;20.37;101672.94;6192235;28;20240;-54
2021/06/01 17:22:15;;;;;;;1.48;1.10;;;;;;;24.14;20.64;101665.09;6204490;28;20803;-54
2021/06/01 17:36:37;;;;;;;2.63;1.33;;;;;;;24.07;21.48;101658.34;6207473;28;20232;-55
2021/06/01 17:39:58;;;;;;;1.55;1.08;;;;;;;23.97;21.91;101652.66;6200863;28;20241;-56
2021/06/01 17:43:26;;;;;;;1.45;1.08;;;;;;;23.67;21.48;101654.19;6212812;28;20681;-53
2021/06/01 17:46:48;;;;;;;1.30;1.20;;;;;;;23.52;21.85;101655.84;6201953;28;20540;-56
2021/06/01 17:50:10;;;;;;;2.15;1.20;;;;;;;23.59;22.25;101659.91;6203799;28;20240;-56
2021/06/01 17:53:32;;;;;;;1.50;1.40;;;;;;;23.35;22.03;101659.34;6201954;28;20571;-54
2021/06/01 17:56:54;;;;;;;2.45;1.10;;;;;;;23.01;21.83;101668.91;6203049;28;20229;-55
2021/06/01 18:00:17;;;;;;;1.35;0.90;;;;;;;23.03;21.73;101668.88;6194940;28;20225;-57
2021/06/01 18:03:44;;;;;;;1.73;1.38;;;;;;;22.93;22.66;101669.28;6201654;28;20340;-56
2021/06/01 18:07:08;;;;;;;4.47;1.75;;;;;;;23.04;22.37;101665.31;6199366;28;20229;-55
2021/06/01 18:11:09;;;;;;;2.90;2.70;;;;;;;22.88;24.02;101671.31;6205487;28;20225;-56
2021/06/01 18:29:54;;;;;;;1.90;1.80;;;;;;;22.51;26.89;101672.16;6202272;28;20232;-53
2021/06/01 18:37:18;;;;;;;1.73;1.48;;;;;;;22.15;27.51;101665.75;6198232;28;20234;-56
2021/06/01 18:52:25;;;;;;;2.15;1.88;;;;;;;22.30;29.67;101674.84;6197567;28;20230;-54
2021/06/01 19:24:38;;;;;;;2.40;2.20;;;;;;;21.00;31.95;101711.09;6203025;28;20634;-55
2021/06/01 19:28:23;;;;;;;2.30;2.05;;;;;;;21.21;32.20;101703.25;6209264;28;20488;-54
2021/06/01 19:50:11;;;;;;;3.40;3.10;;;;;;;21.45;34.48;101703.22;6208143;28;20233;-53
2021/06/01 19:53:33;;;;;;;4.90;2.65;;;;;;;21.12;35.07;101714.19;6201226;28;20225;-52
2021/06/01 19:56:53;;;;;;;2.40;2.20;;;;;;;21.14;35.15;101713.19;6203865;28;20244;-54
2021/06/01 20:00:15;;;;;;;4.28;3.08;;;;;;;21.07;35.64;101709.06;6209226;28;20333;-55
2021/06/01 20:03:37;;;;;;;3.10;2.80;;;;;;;20.87;36.16;101717.78;6199118;28;20308;-52
2021/06/01 20:06:58;;;;;;;3.92;3.63;;;;;;;21.00;35.79;101719.03;6202812;28;20865;-55
2021/06/01 20:10:19;;;;;;;5.47;4.00;;;;;;;20.69;36.63;101721.13;6202364;28;20241;-51
2021/06/01 20:13:40;;;;;;;4.30;3.50;;;;;;;20.60;36.79;101723.19;6205270;28;20221;-55
2021/06/01 20:17:01;;;;;;;4.82;3.40;;;;;;;20.50;37.12;101719.13;6199926;28;20522;-52
2021/06/01 20:20:23;;;;;;;4.68;3.25;;;;;;;20.51;37.49;101726.16;6200659;28;20228;-51
2021/06/01 20:23:44;;;;;;;5.15;3.88;;;;;;;20.53;37.41;101721.66;6206040;28;20588;-54
2021/06/01 20:27:08;;;;;;;3.67;3.38;;;;;;;20.23;38.38;101727.09;6200178;28;20320;-55
2021/06/01 20:30:29;;;;;;;4.00;3.60;;;;;;;20.38;38.47;101723.06;6187427;28;20225;-51
2021/06/01 20:33:51;;;;;;;3.58;3.28;;;;;;;20.25;38.92;101733.19;6197451;28;20233;-51
2021/06/01 20:37:13;;;;;;;3.72;3.22;;;;;;;20.20;38.98;101735.16;6199834;28;20229;-55
2021/06/01 20:40:34;;;;;;;5.63;3.72;;;;;;;20.25;39.42;101738.50;6199318;28;20241;-54
2021/06/01 20:43:57;;;;;;;4.18;3.78;;;;;;;20.31;39.33;101733.91;6203407;28;21080;-55
2021/06/01 20:47:21;;;;;;;4.30;3.90;;;;;;;20.22;39.62;101733.34;6200991;28;20233;-54
2021/06/01 20:50:42;;;;;;;4.78;3.83;;;;;;;19.99;40.45;101735.91;6204112;28;20308;-53
2021/06/01 20:54:05;;;;;;;3.58;3.28;;;;;;;19.98;40.01;101736.81;6209135;28;20230;-55
2021/06/01 20:57:28;;;;;;;4.57;4.13;;;;;;;19.76;40.29;101737.53;6196735;28;20222;-55
2021/06/01 21:00:52;;;;;;;4.00;3.42;;;;;;;19.90;39.46;101736.22;6209343;28;20233;-56
2021/06/01 21:04:13;;;;;;;4.43;4.03;;;;;;;19.63;40.13;101728.25;6205707;28;20576;-53
2021/06/01 21:07:33;;;;;;;6.43;3.45;;;;;;;19.42;40.60;101733.28;6204221;28;20243;-51
2021/06/01 21:10:56;;;;;;;5.60;3.70;;;;;;;19.20;41.37;101726.97;6202213;28;20229;-49
2021/06/01 21:14:17;;;;;;;4.05;3.67;;;;;;;19.34;40.89;101727.38;6212340;28;20331;-53
2021/06/01 21:17:38;;;;;;;5.43;4.03;;;;;;;19.35;40.62;101728.25;6205441;28;20229;-52
2021/06/01 21:20:58;;;;;;;3.88;3.53;;;;;;;19.11;41.30;101729.88;6208603;28;20221;-55
2021/06/01 21:24:19;;;;;;;4.40;4.00;;;;;;;19.00;41.91;101733.72;6204636;28;20628;-55